Time;durP1;ratioP1;P1;durP2;ratioP2;P2;SDS_P1;SDS_P2;PMS_P1;PMS_P2;Temp;Humidity;BMP_temperature;BMP_pressure;BME280_temperature;BME280_humidity;BME280_pressure;Samples;Min_cycle;Max_cycle;Signal;HPM_P1;HPM_P2
2023/07/26 00:00:43;;;;;;;15.55;7.43;;;;;;;;;;5098173;28;20180;-75
2023/07/26 00:03:08;;;;;;;15.88;7.78;;;;;;;;;;5101237;27;20119;-75
2023/07/26 00:05:34;;;;;;;17.23;7.78;;;;;;;;;;5097693;28;20109;-76
2023/07/26 00:07:59;;;;;;;22.42;8.02;;;;;;;;;;5086158;28;20438;-77
2023/07/26 00:10:24;;;;;;;21.75;7.82;;;;;;;;;;5084775;28;20027;-77
2023/07/26 00:12:50;;;;;;;18.48;8.00;;;;;;;;;;5091305;28;20028;-75
2023/07/26 00:15:15;;;;;;;15.35;7.68;;;;;;;;;;5092845;28;20084;-76
2023/07/26 00:17:41;;;;;;;15.95;7.07;;;;;;;;;;5092701;28;20413;-75
2023/07/26 00:20:07;;;;;;;14.52;7.35;;;;;;;;;;5082611;28;20027;-77
2023/07/26 00:22:32;;;;;;;15.43;6.75;;;;;;;;;;5086004;28;20019;-77
2023/07/26 00:25:00;;;;;;;14.48;7.47;;;;;;;;;;5096909;28;20024;-74
2023/07/26 00:27:25;;;;;;;17.02;7.38;;;;;;;;;;5094454;28;20028;-76
2023/07/26 00:29:51;;;;;;;16.75;6.72;;;;;;;;;;5090101;28;20101;-73
2023/07/26 00:32:16;;;;;;;14.23;7.00;;;;;;;;;;5092812;28;20027;-77
2023/07/26 00:34:41;;;;;;;14.32;7.25;;;;;;;;;;5084042;28;20023;-76
2023/07/26 00:37:07;;;;;;;15.88;6.82;;;;;;;;;;5088119;28;20370;-77
2023/07/26 00:39:32;;;;;;;11.52;7.43;;;;;;;;;;5093712;28;20519;-73
2023/07/26 00:41:58;;;;;;;15.30;7.40;;;;;;;;;;5099896;28;20447;-76
2023/07/26 00:44:23;;;;;;;15.05;7.18;;;;;;;;;;5096184;28;20024;-76
2023/07/26 00:46:48;;;;;;;15.43;8.15;;;;;;;;;;5094927;28;20039;-75
2023/07/26 00:49:14;;;;;;;16.17;7.47;;;;;;;;;;5084204;28;20043;-75
2023/07/26 00:51:39;;;;;;;14.45;7.35;;;;;;;;;;5096307;28;20537;-77
2023/07/26 00:54:06;;;;;;;17.88;8.15;;;;;;;;;;5089572;28;20102;-76
2023/07/26 00:56:31;;;;;;;16.90;7.22;;;;;;;;;;5091219;28;20043;-76
2023/07/26 00:58:57;;;;;;;14.20;7.15;;;;;;;;;;5092464;28;20453;-75
2023/07/26 01:01:23;;;;;;;15.30;7.40;;;;;;;;;;5096812;28;20043;-74
2023/07/26 01:03:48;;;;;;;14.75;6.88;;;;;;;;;;5088243;28;20027;-74
2023/07/26 01:06:22;;;;;;;17.05;7.45;;;;;;;;;;5096086;28;20039;-75
2023/07/26 01:09:06;;;;;;;16.73;7.18;;;;;;;;;;5096589;28;20678;-74
2023/07/26 01:11:35;;;;;;;14.00;7.60;;;;;;;;;;5083005;28;20088;-74
2023/07/26 01:14:00;;;;;;;11.48;7.00;;;;;;;;;;5087645;28;20091;-76
2023/07/26 01:16:26;;;;;;;17.35;7.80;;;;;;;;;;5096086;28;20042;-76
2023/07/26 01:18:51;;;;;;;17.88;7.47;;;;;;;;;;5086786;28;20031;-76
2023/07/26 01:21:16;;;;;;;13.38;7.90;;;;;;;;;;5092166;28;20452;-76
2023/07/26 01:23:42;;;;;;;16.02;7.45;;;;;;;;;;5081127;28;20036;-76
2023/07/26 01:26:07;;;;;;;15.35;8.07;;;;;;;;;;5095442;28;20023;-74
2023/07/26 01:28:33;;;;;;;16.38;7.30;;;;;;;;;;5081814;28;20028;-74
2023/07/26 01:30:59;;;;;;;21.05;7.82;;;;;;;;;;5095634;28;20050;-75
2023/07/26 01:33:26;;;;;;;19.70;7.90;;;;;;;;;;5096707;28;20089;-75
2023/07/26 01:35:52;;;;;;;15.35;8.02;;;;;;;;;;5097452;28;20138;-74
2023/07/26 01:38:18;;;;;;;17.80;8.02;;;;;;;;;;5097218;28;20429;-75
2023/07/26 01:40:43;;;;;;;16.65;8.23;;;;;;;;;;5096395;28;20024;-76
2023/07/26 01:43:09;;;;;;;21.67;8.13;;;;;;;;;;5084853;28;20027;-75
2023/07/26 01:45:34;;;;;;;18.05;7.38;;;;;;;;;;5086553;28;20029;-75
2023/07/26 01:48:00;;;;;;;17.95;7.63;;;;;;;;;;5099490;28;20024;-75
2023/07/26 01:50:25;;;;;;;17.48;7.47;;;;;;;;;;5099780;28;20098;-76
2023/07/26 01:52:50;;;;;;;18.50;8.63;;;;;;;;;;5090695;28;20063;-75
2023/07/26 01:55:16;;;;;;;20.67;8.18;;;;;;;;;;5098711;27;20435;-75
2023/07/26 01:57:41;;;;;;;18.70;7.88;;;;;;;;;;5099193;28;20027;-77
2023/07/26 02:00:07;;;;;;;22.27;7.72;;;;;;;;;;5099761;28;20088;-75
2023/07/26 02:02:33;;;;;;;15.07;7.70;;;;;;;;;;5098122;28;20094;-75
2023/07/26 02:04:58;;;;;;;21.23;8.27;;;;;;;;;;5087636;28;20058;-78
2023/07/26 02:07:23;;;;;;;15.93;7.40;;;;;;;;;;5099495;27;20034;-77
2023/07/26 02:09:49;;;;;;;26.00;7.93;;;;;;;;;;5091953;28;20160;-75
2023/07/26 02:12:14;;;;;;;15.90;7.90;;;;;;;;;;5096801;28;20470;-75
2023/07/26 02:14:40;;;;;;;19.30;7.97;;;;;;;;;;5101023;28;20020;-75
2023/07/26 02:17:05;;;;;;;16.83;7.80;;;;;;;;;;5084525;28;20492;-75
2023/07/26 02:19:30;;;;;;;17.70;7.85;;;;;;;;;;5087576;28;20019;-75
2023/07/26 02:21:56;;;;;;;16.65;7.30;;;;;;;;;;5097205;28;20036;-75
2023/07/26 02:24:21;;;;;;;19.60;8.18;;;;;;;;;;5100776;28;20040;-75
2023/07/26 02:26:46;;;;;;;15.18;8.13;;;;;;;;;;5087952;28;20087;-76
2023/07/26 02:29:12;;;;;;;15.85;7.47;;;;;;;;;;5101953;28;20422;-75
2023/07/26 02:31:37;;;;;;;15.30;7.53;;;;;;;;;;5099424;28;20441;-77
2023/07/26 02:34:02;;;;;;;28.52;8.45;;;;;;;;;;5096527;28;20505;-76
2023/07/26 02:36:28;;;;;;;19.85;8.30;;;;;;;;;;5100411;28;20027;-74
2023/07/26 02:38:53;;;;;;;36.85;8.98;;;;;;;;;;5099349;28;20164;-76
2023/07/26 02:41:18;;;;;;;17.60;8.07;;;;;;;;;;5088500;28;20096;-74
2023/07/26 02:43:44;;;;;;;17.35;8.13;;;;;;;;;;5099755;28;20043;-73
2023/07/26 02:46:09;;;;;;;16.33;8.20;;;;;;;;;;5099814;28;20034;-73
2023/07/26 02:48:35;;;;;;;15.85;7.78;;;;;;;;;;5098274;28;20118;-74
2023/07/26 02:51:00;;;;;;;18.60;7.85;;;;;;;;;;5099388;27;20813;-74
2023/07/26 02:53:25;;;;;;;12.55;7.88;;;;;;;;;;5095043;28;20723;-74
2023/07/26 02:55:51;;;;;;;25.52;7.93;;;;;;;;;;5098133;28;20343;-75
2023/07/26 02:58:16;;;;;;;20.20;8.38;;;;;;;;;;5100364;28;20988;-76
2023/07/26 03:00:41;;;;;;;21.08;8.73;;;;;;;;;;5097695;28;20123;-75
2023/07/26 03:03:07;;;;;;;15.02;8.10;;;;;;;;;;5098493;28;20063;-74
2023/07/26 03:05:33;;;;;;;15.68;7.97;;;;;;;;;;5092609;28;20057;-76
2023/07/26 03:07:58;;;;;;;21.50;8.20;;;;;;;;;;5093906;28;20443;-75
2023/07/26 03:10:24;;;;;;;19.42;8.18;;;;;;;;;;5093167;28;20030;-75
2023/07/26 03:12:49;;;;;;;22.05;8.00;;;;;;;;;;5093098;28;20039;-74
2023/07/26 03:15:14;;;;;;;21.05;8.35;;;;;;;;;;5098180;28;20092;-74
2023/07/26 03:17:40;;;;;;;18.48;8.45;;;;;;;;;;5096421;28;20351;-75
2023/07/26 03:20:05;;;;;;;16.67;9.30;;;;;;;;;;5094800;28;20089;-75
2023/07/26 03:22:31;;;;;;;23.30;8.90;;;;;;;;;;5100447;28;20379;-73
2023/07/26 03:24:56;;;;;;;16.67;8.77;;;;;;;;;;5099640;28;20051;-76
2023/07/26 03:27:22;;;;;;;19.58;7.88;;;;;;;;;;5096993;28;20104;-74
2023/07/26 03:29:47;;;;;;;18.20;8.25;;;;;;;;;;5098642;28;20134;-74
2023/07/26 03:32:12;;;;;;;17.17;8.57;;;;;;;;;;5097794;28;20450;-74
2023/07/26 03:34:38;;;;;;;16.90;8.90;;;;;;;;;;5099762;28;20110;-74
2023/07/26 03:37:03;;;;;;;17.80;7.72;;;;;;;;;;5099631;28;20080;-74
2023/07/26 03:39:29;;;;;;;22.83;8.55;;;;;;;;;;5099504;28;20054;-74
2023/07/26 03:41:54;;;;;;;17.92;8.57;;;;;;;;;;5098835;28;20063;-75
2023/07/26 03:44:20;;;;;;;15.57;8.82;;;;;;;;;;5100314;28;20063;-75
2023/07/26 03:46:45;;;;;;;17.48;8.70;;;;;;;;;;5099277;28;20050;-75
2023/07/26 03:49:10;;;;;;;14.13;7.72;;;;;;;;;;5097194;28;20130;-75
2023/07/26 03:51:36;;;;;;;21.67;9.18;;;;;;;;;;5099740;28;20030;-75
2023/07/26 03:54:01;;;;;;;19.00;8.70;;;;;;;;;;5098634;28;20027;-74
2023/07/26 03:56:26;;;;;;;17.08;8.45;;;;;;;;;;5098028;28;20023;-73
2023/07/26 03:58:52;;;;;;;19.20;8.50;;;;;;;;;;5097528;28;20058;-79
2023/07/26 04:01:17;;;;;;;21.17;9.43;;;;;;;;;;5099406;28;20108;-74
2023/07/26 04:03:43;;;;;;;20.42;8.27;;;;;;;;;;5100672;27;20046;-74
2023/07/26 04:06:12;;;;;;;17.88;8.25;;;;;;;;;;5096701;28;20034;-74
2023/07/26 04:08:37;;;;;;;16.38;8.82;;;;;;;;;;5100245;28;20027;-74
2023/07/26 04:11:03;;;;;;;20.75;8.38;;;;;;;;;;5098439;28;20023;-76
2023/07/26 04:13:28;;;;;;;18.17;8.18;;;;;;;;;;5099003;28;20019;-75
2023/07/26 04:15:53;;;;;;;19.20;9.48;;;;;;;;;;5100302;28;20028;-74
2023/07/26 04:18:19;;;;;;;21.23;8.85;;;;;;;;;;5099970;28;20051;-73
2023/07/26 04:20:44;;;;;;;21.90;8.60;;;;;;;;;;5098288;28;20063;-75
2023/07/26 04:23:09;;;;;;;17.58;8.38;;;;;;;;;;5098978;28;20035;-74
2023/07/26 04:25:35;;;;;;;19.30;8.82;;;;;;;;;;5099434;28;20034;-74
2023/07/26 04:28:00;;;;;;;20.08;8.10;;;;;;;;;;5100059;28;20031;-74
2023/07/26 04:30:25;;;;;;;15.23;8.80;;;;;;;;;;5095756;28;20028;-73
2023/07/26 04:32:51;;;;;;;17.95;8.25;;;;;;;;;;5099952;28;20035;-74
2023/07/26 04:35:16;;;;;;;17.30;8.30;;;;;;;;;;5100584;28;20100;-74
2023/07/26 04:37:41;;;;;;;21.00;8.80;;;;;;;;;;5100213;28;20047;-74
2023/07/26 04:40:07;;;;;;;18.40;8.13;;;;;;;;;;5099963;28;20069;-74
2023/07/26 04:42:34;;;;;;;20.25;8.52;;;;;;;;;;5098192;28;20043;-74
2023/07/26 04:45:00;;;;;;;22.65;8.43;;;;;;;;;;5095461;28;20346;-74
2023/07/26 04:47:25;;;;;;;20.05;8.65;;;;;;;;;;5097700;28;20028;-74
2023/07/26 04:49:50;;;;;;;20.55;9.23;;;;;;;;;;5097318;28;20030;-74
2023/07/26 04:52:16;;;;;;;24.83;9.45;;;;;;;;;;5099562;28;20031;-74
2023/07/26 04:54:41;;;;;;;19.20;8.75;;;;;;;;;;5100002;28;20043;-75
2023/07/26 04:57:06;;;;;;;21.73;10.18;;;;;;;;;;5099753;28;20103;-74
2023/07/26 04:59:32;;;;;;;18.88;9.90;;;;;;;;;;5098806;28;20480;-73
2023/07/26 05:01:57;;;;;;;17.70;9.40;;;;;;;;;;5097859;28;20784;-77
2023/07/26 05:04:22;;;;;;;20.40;8.52;;;;;;;;;;5098026;28;20032;-74
2023/07/26 05:06:48;;;;;;;21.45;9.77;;;;;;;;;;5100784;28;20349;-74
2023/07/26 05:09:13;;;;;;;18.20;9.18;;;;;;;;;;5097901;28;20016;-76
2023/07/26 05:11:38;;;;;;;22.20;9.35;;;;;;;;;;5101028;28;20031;-75
2023/07/26 05:14:04;;;;;;;28.65;9.48;;;;;;;;;;5098890;28;20028;-75
2023/07/26 05:16:29;;;;;;;25.05;9.43;;;;;;;;;;5105636;28;20032;-74
2023/07/26 05:18:57;;;;;;;21.35;8.77;;;;;;;;;;5101884;28;20430;-75
2023/07/26 05:21:23;;;;;;;19.20;8.83;;;;;;;;;;5104255;28;20039;-74
2023/07/26 05:23:48;;;;;;;22.95;9.15;;;;;;;;;;5100292;28;20030;-75
2023/07/26 05:26:13;;;;;;;20.55;9.18;;;;;;;;;;5101698;28;20024;-74
2023/07/26 05:28:39;;;;;;;20.58;9.20;;;;;;;;;;5100469;28;20108;-74
2023/07/26 05:31:04;;;;;;;22.15;8.35;;;;;;;;;;5100119;28;20136;-75
2023/07/26 05:33:30;;;;;;;25.55;9.52;;;;;;;;;;5101782;28;20031;-74
2023/07/26 05:35:55;;;;;;;21.95;8.93;;;;;;;;;;5096901;28;20046;-78
2023/07/26 05:38:20;;;;;;;21.55;9.57;;;;;;;;;;5103692;28;20048;-75
2023/07/26 05:40:46;;;;;;;29.25;9.35;;;;;;;;;;5103164;28;20100;-74
2023/07/26 05:43:12;;;;;;;23.45;8.93;;;;;;;;;;5099782;28;20746;-75
2023/07/26 05:45:39;;;;;;;20.80;8.70;;;;;;;;;;5104214;28;20028;-77
2023/07/26 05:48:05;;;;;;;20.00;8.75;;;;;;;;;;5103086;28;20028;-76
2023/07/26 05:50:30;;;;;;;21.30;8.68;;;;;;;;;;5102014;28;20109;-77
2023/07/26 05:52:55;;;;;;;23.70;8.20;;;;;;;;;;5101700;28;20039;-74
2023/07/26 05:55:21;;;;;;;22.60;9.43;;;;;;;;;;5099358;28;20402;-74
2023/07/26 05:57:46;;;;;;;17.15;7.55;;;;;;;;;;5101088;28;20643;-75
2023/07/26 06:00:13;;;;;;;22.58;9.25;;;;;;;;;;5101033;28;20039;-74
2023/07/26 06:02:39;;;;;;;18.30;7.97;;;;;;;;;;5102490;28;20055;-74
2023/07/26 06:05:05;;;;;;;25.25;9.15;;;;;;;;;;5101123;28;20426;-75
2023/07/26 06:07:30;;;;;;;21.08;7.50;;;;;;;;;;5098837;28;20026;-75
2023/07/26 06:09:56;;;;;;;22.67;8.15;;;;;;;;;;5097641;28;20036;-75
2023/07/26 06:12:21;;;;;;;15.88;8.45;;;;;;;;;;5096752;28;20032;-78
2023/07/26 06:14:46;;;;;;;16.85;7.57;;;;;;;;;;5099808;28;20039;-75
2023/07/26 06:17:12;;;;;;;19.70;7.53;;;;;;;;;;5102713;28;20016;-76
2023/07/26 06:19:37;;;;;;;24.10;9.02;;;;;;;;;;5095624;28;20024;-74
2023/07/26 06:22:03;;;;;;;25.98;8.05;;;;;;;;;;5101352;28;20115;-75
2023/07/26 06:24:28;;;;;;;19.10;8.13;;;;;;;;;;5101335;28;20024;-75
2023/07/26 06:26:53;;;;;;;18.33;7.95;;;;;;;;;;5101149;28;20028;-75
2023/07/26 06:29:19;;;;;;;23.17;8.77;;;;;;;;;;5101195;28;20419;-75
2023/07/26 06:31:45;;;;;;;18.55;7.32;;;;;;;;;;5100504;28;20028;-76
2023/07/26 06:34:10;;;;;;;22.23;8.45;;;;;;;;;;5102983;28;20024;-78
2023/07/26 06:36:35;;;;;;;25.83;8.32;;;;;;;;;;5101834;28;20063;-75
2023/07/26 06:39:01;;;;;;;15.43;8.52;;;;;;;;;;5102689;28;20055;-75
2023/07/26 06:41:26;;;;;;;21.15;8.63;;;;;;;;;;5100443;28;20032;-74
2023/07/26 06:43:52;;;;;;;28.52;7.85;;;;;;;;;;5099919;28;20035;-75
2023/07/26 06:46:17;;;;;;;21.52;7.70;;;;;;;;;;5099835;28;20102;-75
2023/07/26 06:48:42;;;;;;;18.88;8.23;;;;;;;;;;5100558;28;20115;-74
2023/07/26 06:51:08;;;;;;;22.30;8.32;;;;;;;;;;5099407;28;20019;-75
2023/07/26 06:53:33;;;;;;;21.25;8.63;;;;;;;;;;5099881;28;20024;-75
2023/07/26 06:55:59;;;;;;;18.50;7.43;;;;;;;;;;5100305;28;20027;-75
2023/07/26 06:58:24;;;;;;;21.67;8.07;;;;;;;;;;5100955;28;20115;-76
2023/07/26 07:00:50;;;;;;;19.80;7.93;;;;;;;;;;5096999;28;20386;-75
2023/07/26 07:03:15;;;;;;;17.70;6.78;;;;;;;;;;5100883;27;20807;-75
2023/07/26 07:05:40;;;;;;;17.30;7.15;;;;;;;;;;5099986;28;20449;-76
2023/07/26 07:08:06;;;;;;;14.25;6.97;;;;;;;;;;5098044;28;20338;-74
2023/07/26 07:10:31;;;;;;;16.67;7.05;;;;;;;;;;5102889;28;20027;-75
2023/07/26 07:12:56;;;;;;;19.85;6.97;;;;;;;;;;5101509;28;20045;-76
2023/07/26 07:15:22;;;;;;;15.63;6.93;;;;;;;;;;5098822;28;20027;-76
2023/07/26 07:17:47;;;;;;;21.05;7.00;;;;;;;;;;5097110;28;20051;-77
2023/07/26 07:20:12;;;;;;;17.52;6.63;;;;;;;;;;5101915;28;20070;-73
2023/07/26 07:22:38;;;;;;;17.88;8.23;;;;;;;;;;5096731;28;20060;-76
2023/07/26 07:25:04;;;;;;;18.58;7.57;;;;;;;;;;5098608;28;20075;-75
2023/07/26 07:27:29;;;;;;;16.20;6.88;;;;;;;;;;5098415;28;20024;-76
2023/07/26 07:29:54;;;;;;;16.05;7.55;;;;;;;;;;5098344;28;20023;-73
2023/07/26 07:32:20;;;;;;;21.38;8.07;;;;;;;;;;5099824;28;20030;-73
2023/07/26 07:34:46;;;;;;;19.88;8.07;;;;;;;;;;5101055;28;20307;-74
2023/07/26 07:37:11;;;;;;;18.88;7.22;;;;;;;;;;5099758;28;20102;-74
2023/07/26 07:39:37;;;;;;;15.48;7.35;;;;;;;;;;5099985;28;20139;-77
2023/07/26 07:42:02;;;;;;;23.27;7.10;;;;;;;;;;5101736;28;20108;-76
2023/07/26 07:44:28;;;;;;;21.48;7.18;;;;;;;;;;5100890;28;20024;-74
2023/07/26 07:46:53;;;;;;;20.48;7.78;;;;;;;;;;5098655;28;20486;-76
2023/07/26 07:49:19;;;;;;;43.53;32.47;;;;;;;;;;5094961;28;20039;-75
2023/07/26 07:51:44;;;;;;;15.55;6.63;;;;;;;;;;5097039;28;20438;-75
2023/07/26 07:54:09;;;;;;;13.13;7.72;;;;;;;;;;5100332;27;20022;-76
2023/07/26 07:56:35;;;;;;;19.48;7.75;;;;;;;;;;5094345;28;20886;-76
2023/07/26 07:59:00;;;;;;;16.95;7.47;;;;;;;;;;5101074;27;20051;-74
2023/07/26 08:01:26;;;;;;;22.08;8.38;;;;;;;;;;5099849;28;20028;-76
2023/07/26 08:03:51;;;;;;;18.55;8.43;;;;;;;;;;5098454;27;20039;-76
2023/07/26 08:06:17;;;;;;;21.08;8.18;;;;;;;;;;5099033;28;20060;-80
2023/07/26 08:08:42;;;;;;;16.48;7.30;;;;;;;;;;5095869;28;20031;-74
2023/07/26 08:11:07;;;;;;;15.50;7.40;;;;;;;;;;5096516;28;20027;-75
2023/07/26 08:13:33;;;;;;;17.35;7.57;;;;;;;;;;5097261;28;20023;-76
2023/07/26 08:15:59;;;;;;;14.23;7.63;;;;;;;;;;5097635;28;20024;-74
2023/07/26 08:18:24;;;;;;;22.08;7.47;;;;;;;;;;5098097;28;20034;-76
2023/07/26 08:20:50;;;;;;;16.17;6.63;;;;;;;;;;5099416;28;20042;-75
2023/07/26 08:23:15;;;;;;;18.63;7.57;;;;;;;;;;5099005;28;20024;-76
2023/07/26 08:25:40;;;;;;;19.05;7.35;;;;;;;;;;5099133;28;20033;-76
2023/07/26 08:28:06;;;;;;;19.52;7.93;;;;;;;;;;5099661;28;20028;-78
2023/07/26 08:30:31;;;;;;;20.27;8.02;;;;;;;;;;5098454;28;20032;-75
2023/07/26 08:32:57;;;;;;;17.58;7.10;;;;;;;;;;5101011;28;20410;-74
2023/07/26 08:35:22;;;;;;;18.02;7.40;;;;;;;;;;5097820;28;20038;-75
2023/07/26 08:37:48;;;;;;;18.20;7.88;;;;;;;;;;5097798;28;20123;-73
2023/07/26 08:40:13;;;;;;;17.98;7.05;;;;;;;;;;5098364;28;20726;-73
2023/07/26 08:42:39;;;;;;;15.30;7.10;;;;;;;;;;5099819;28;20459;-73
2023/07/26 08:45:05;;;;;;;20.58;7.63;;;;;;;;;;5101684;28;20106;-78
2023/07/26 08:47:32;;;;;;;16.85;7.55;;;;;;;;;;5097227;28;21242;-75
2023/07/26 08:49:58;;;;;;;18.50;7.40;;;;;;;;;;5096216;28;20020;-75
2023/07/26 08:52:24;;;;;;;17.15;7.10;;;;;;;;;;5095079;28;20103;-74
2023/07/26 08:54:50;;;;;;;16.02;7.57;;;;;;;;;;5101079;28;20128;-76
2023/07/26 08:57:18;;;;;;;16.23;6.95;;;;;;;;;;5098235;28;20031;-75
2023/07/26 08:59:44;;;;;;;19.45;7.35;;;;;;;;;;5097569;28;20024;-73
2023/07/26 09:02:10;;;;;;;17.58;6.50;;;;;;;;;;5097638;28;20054;-74
2023/07/26 09:04:36;;;;;;;15.70;7.28;;;;;;;;;;5094977;28;20031;-75
2023/07/26 09:07:02;;;;;;;17.75;7.13;;;;;;;;;;5098056;28;20425;-75
2023/07/26 09:09:27;;;;;;;16.23;6.63;;;;;;;;;;5097346;28;20067;-76
2023/07/26 09:11:52;;;;;;;15.48;7.88;;;;;;;;;;5092738;28;20124;-75
2023/07/26 09:14:18;;;;;;;14.05;6.65;;;;;;;;;;5098030;28;20038;-76
2023/07/26 09:16:43;;;;;;;12.30;6.22;;;;;;;;;;5098248;28;23162;-75
2023/07/26 09:19:09;;;;;;;13.43;6.90;;;;;;;;;;5097168;28;20019;-74
2023/07/26 09:21:35;;;;;;;13.88;7.00;;;;;;;;;;5098402;28;20024;-77
2023/07/26 09:24:01;;;;;;;16.42;7.28;;;;;;;;;;5099479;28;20328;-76
2023/07/26 09:26:34;;;;;;;15.57;6.63;;;;;;;;;;5100350;28;20039;-74
2023/07/26 09:28:59;;;;;;;14.90;6.60;;;;;;;;;;5098044;28;20031;-75
2023/07/26 09:31:32;;;;;;;15.82;7.05;;;;;;;;;;5098971;28;20031;-73
2023/07/26 09:33:57;;;;;;;14.40;7.03;;;;;;;;;;5094807;28;20513;-75
2023/07/26 09:36:23;;;;;;;14.65;7.20;;;;;;;;;;5096966;28;20110;-78
2023/07/26 09:38:48;;;;;;;16.52;7.05;;;;;;;;;;5096661;28;20100;-75
2023/07/26 09:41:21;;;;;;;12.52;7.75;;;;;;;;;;5097048;28;20059;-73
2023/07/26 09:43:47;;;;;;;20.48;7.85;;;;;;;;;;5096491;28;20039;-73
2023/07/26 09:46:14;;;;;;;15.35;8.77;;;;;;;;;;5098182;28;20080;-74
2023/07/26 09:48:56;;;;;;;20.85;9.48;;;;;;;;;;5098319;28;20035;-75
2023/07/26 09:51:22;;;;;;;13.95;8.75;;;;;;;;;;5099089;28;20055;-76
2023/07/26 09:53:48;;;;;;;17.90;9.48;;;;;;;;;;5095800;28;20059;-74
2023/07/26 09:56:14;;;;;;;15.60;9.10;;;;;;;;;;5097940;28;20032;-76
2023/07/26 09:58:42;;;;;;;17.63;9.48;;;;;;;;;;5096608;28;20449;-74
2023/07/26 10:01:11;;;;;;;16.05;10.40;;;;;;;;;;5101429;28;20036;-73
2023/07/26 10:03:38;;;;;;;17.45;10.43;;;;;;;;;;5101142;27;20055;-74
2023/07/26 10:06:04;;;;;;;19.35;10.73;;;;;;;;;;5100465;28;20055;-74
2023/07/26 10:08:30;;;;;;;16.27;11.07;;;;;;;;;;5102559;28;20050;-75
2023/07/26 10:10:55;;;;;;;15.35;11.45;;;;;;;;;;5100933;28;20062;-73
2023/07/26 10:13:21;;;;;;;20.88;11.60;;;;;;;;;;5103042;28;20109;-76
2023/07/26 10:15:48;;;;;;;16.02;12.00;;;;;;;;;;5100338;28;20411;-75
2023/07/26 10:18:21;;;;;;;16.23;10.90;;;;;;;;;;5100783;28;20127;-74
2023/07/26 10:20:48;;;;;;;15.82;10.85;;;;;;;;;;5097585;28;20280;-75
2023/07/26 10:23:14;;;;;;;17.92;11.32;;;;;;;;;;5100708;28;20039;-76
2023/07/26 10:25:40;;;;;;;19.65;11.45;;;;;;;;;;5099755;28;20038;-75
2023/07/26 10:28:06;;;;;;;16.77;10.68;;;;;;;;;;5096610;28;20023;-76
2023/07/26 10:30:32;;;;;;;13.85;10.32;;;;;;;;;;5101123;28;20031;-75
2023/07/26 10:32:59;;;;;;;16.52;10.25;;;;;;;;;;5101174;28;20059;-75
2023/07/26 10:35:32;;;;;;;14.60;9.23;;;;;;;;;;5100070;28;20020;-74
2023/07/26 10:38:01;;;;;;;18.55;10.27;;;;;;;;;;5097270;28;20050;-75
2023/07/26 10:40:33;;;;;;;14.43;9.63;;;;;;;;;;5101046;28;20393;-74
2023/07/26 10:42:59;;;;;;;14.68;9.05;;;;;;;;;;5101950;28;20035;-74
2023/07/26 10:45:54;;;;;;;15.50;9.63;;;;;;;;;;5100278;28;20393;-76
2023/07/26 10:48:28;;;;;;;12.13;8.80;;;;;;;;;;5016815;28;21324;-74
2023/07/26 10:50:57;;;;;;;15.98;8.82;;;;;;;;;;5016903;28;20092;-74
2023/07/26 10:53:26;;;;;;;14.45;7.85;;;;;;;;;;5017628;28;20033;-74
2023/07/26 10:55:51;;;;;;;19.50;8.18;;;;;;;;;;5015638;28;20499;-76
2023/07/26 10:58:17;;;;;;;15.57;7.40;;;;;;;;;;5014376;28;20116;-76
2023/07/26 11:00:42;;;;;;;19.83;8.63;;;;;;;;;;5016049;28;21385;-74
2023/07/26 11:03:10;;;;;;;16.17;8.02;;;;;;;;;;5016853;28;20033;-75
2023/07/26 11:05:38;;;;;;;14.82;11.52;;;;;;;;;;5014543;28;20057;-76
2023/07/26 11:08:04;;;;;;;16.45;11.30;;;;;;;;;;5015217;28;20100;-74
2023/07/26 11:10:31;;;;;;;13.52;10.10;;;;;;;;;;5015959;28;20407;-78
2023/07/26 11:13:13;;;;;;;15.63;10.88;;;;;;;;;;5012831;28;20045;-74
2023/07/26 11:15:39;;;;;;;14.80;10.85;;;;;;;;;;5015676;28;20456;-74
2023/07/26 11:18:05;;;;;;;14.88;10.65;;;;;;;;;;5017215;28;20052;-75
2023/07/26 11:20:31;;;;;;;16.60;10.65;;;;;;;;;;5015914;28;20030;-75
2023/07/26 11:22:56;;;;;;;15.43;9.82;;;;;;;;;;5013716;28;20084;-75
2023/07/26 11:25:21;;;;;;;13.73;9.88;;;;;;;;;;5078423;28;20036;-75
2023/07/26 11:27:48;;;;;;;12.80;8.55;;;;;;;;;;5098656;28;20386;-76
2023/07/26 11:30:16;;;;;;;11.45;9.38;;;;;;;;;;5100662;28;20078;-75
2023/07/26 11:32:42;;;;;;;13.13;8.82;;;;;;;;;;5099127;28;20024;-74
2023/07/26 11:35:08;;;;;;;17.27;9.60;;;;;;;;;;5100403;28;20032;-75
2023/07/26 11:37:33;;;;;;;14.68;8.60;;;;;;;;;;5099695;28;20042;-75
2023/07/26 11:40:03;;;;;;;15.55;8.63;;;;;;;;;;5097007;27;20024;-73
2023/07/26 11:42:28;;;;;;;14.93;8.88;;;;;;;;;;5096803;28;20386;-75
2023/07/26 11:44:54;;;;;;;14.32;8.65;;;;;;;;;;5100099;28;20078;-74
2023/07/26 11:47:19;;;;;;;14.98;8.27;;;;;;;;;;5099238;28;20030;-74
2023/07/26 11:49:44;;;;;;;12.90;7.70;;;;;;;;;;5096082;28;20024;-75
2023/07/26 11:52:16;;;;;;;10.43;7.30;;;;;;;;;;5098124;28;20019;-73
2023/07/26 11:54:55;;;;;;;15.25;8.32;;;;;;;;;;5098061;28;20073;-75
2023/07/26 11:57:20;;;;;;;9.77;6.90;;;;;;;;;;5097820;28;20024;-75
2023/07/26 11:59:46;;;;;;;11.77;6.78;;;;;;;;;;5097009;28;20027;-79
2023/07/26 12:02:11;;;;;;;12.43;8.00;;;;;;;;;;5099638;28;20039;-76
2023/07/26 12:04:37;;;;;;;11.15;6.75;;;;;;;;;;5095388;28;20134;-75
2023/07/26 12:07:05;;;;;;;12.15;6.65;;;;;;;;;;5099429;28;20737;-75
2023/07/26 12:09:30;;;;;;;13.20;6.72;;;;;;;;;;5096755;28;20023;-74
2023/07/26 12:11:57;;;;;;;12.02;5.75;;;;;;;;;;5100613;28;20038;-78
2023/07/26 12:14:23;;;;;;;11.68;6.07;;;;;;;;;;5100540;28;20038;-74
2023/07/26 12:16:49;;;;;;;10.40;6.05;;;;;;;;;;5099368;28;20027;-75
2023/07/26 12:19:14;;;;;;;9.48;5.53;;;;;;;;;;5098584;28;20030;-74
2023/07/26 12:21:40;;;;;;;8.27;4.63;;;;;;;;;;5098244;28;20023;-78
2023/07/26 12:24:06;;;;;;;10.77;5.47;;;;;;;;;;5099168;28;20031;-74
2023/07/26 12:26:35;;;;;;;10.43;5.90;;;;;;;;;;5096361;28;20031;-76
2023/07/26 12:29:01;;;;;;;10.95;5.55;;;;;;;;;;5098787;28;20526;-75
2023/07/26 12:31:31;;;;;;;12.63;6.03;;;;;;;;;;5100221;28;20114;-76
2023/07/26 12:33:59;;;;;;;8.10;5.35;;;;;;;;;;5101135;28;20493;-74
2023/07/26 12:36:25;;;;;;;9.10;5.30;;;;;;;;;;5098301;28;20032;-73
2023/07/26 12:38:51;;;;;;;10.80;5.28;;;;;;;;;;5097323;28;20083;-74
2023/07/26 12:41:16;;;;;;;10.80;5.30;;;;;;;;;;5100024;28;20070;-76
2023/07/26 12:43:42;;;;;;;9.95;5.13;;;;;;;;;;5099589;28;20372;-75
2023/07/26 12:46:08;;;;;;;11.05;5.43;;;;;;;;;;5097855;28;20027;-73
2023/07/26 12:48:34;;;;;;;10.07;5.15;;;;;;;;;;5098370;28;20032;-75
2023/07/26 12:51:00;;;;;;;10.93;5.13;;;;;;;;;;5099283;28;20134;-75
2023/07/26 12:53:26;;;;;;;7.70;4.75;;;;;;;;;;5098683;28;20130;-73
2023/07/26 12:55:52;;;;;;;10.38;5.07;;;;;;;;;;5095833;28;20411;-74
2023/07/26 12:58:17;;;;;;;8.68;4.47;;;;;;;;;;5095702;28;20031;-75
2023/07/26 13:00:43;;;;;;;12.57;5.68;;;;;;;;;;5097707;28;20445;-74
2023/07/26 13:03:08;;;;;;;7.88;4.85;;;;;;;;;;5098148;28;20027;-75
2023/07/26 13:05:34;;;;;;;10.43;4.68;;;;;;;;;;5098306;28;20023;-74
2023/07/26 13:07:59;;;;;;;16.15;5.28;;;;;;;;;;5097201;28;20020;-74
2023/07/26 13:10:25;;;;;;;9.77;5.00;;;;;;;;;;5097242;28;20170;-74
2023/07/26 13:12:51;;;;;;;6.85;4.57;;;;;;;;;;5094356;28;20118;-76
2023/07/26 13:15:17;;;;;;;8.93;5.13;;;;;;;;;;5095577;28;20123;-74
2023/07/26 13:17:46;;;;;;;10.23;5.40;;;;;;;;;;5099233;28;20033;-75
2023/07/26 13:20:12;;;;;;;9.27;5.30;;;;;;;;;;5099270;28;20495;-74
2023/07/26 13:22:37;;;;;;;7.93;5.13;;;;;;;;;;5098153;28;20028;-75
2023/07/26 13:25:02;;;;;;;10.10;5.15;;;;;;;;;;5096915;28;20035;-76
2023/07/26 13:27:28;;;;;;;7.55;4.95;;;;;;;;;;5098801;28;20036;-76
2023/07/26 13:29:53;;;;;;;9.52;5.40;;;;;;;;;;5094067;28;20375;-74
2023/07/26 13:32:18;;;;;;;7.53;4.90;;;;;;;;;;5095758;28;20438;-75
2023/07/26 13:34:44;;;;;;;7.82;5.57;;;;;;;;;;5096314;28;20392;-76
2023/07/26 13:37:09;;;;;;;9.63;4.82;;;;;;;;;;5103408;28;20024;-75
2023/07/26 13:39:35;;;;;;;7.90;4.90;;;;;;;;;;5099829;28;20048;-75
2023/07/26 13:42:00;;;;;;;11.23;5.30;;;;;;;;;;5099822;28;20028;-74
2023/07/26 13:44:26;;;;;;;8.13;4.88;;;;;;;;;;5102940;28;20019;-76
2023/07/26 13:46:52;;;;;;;8.82;4.70;;;;;;;;;;5101114;28;20055;-76
2023/07/26 13:49:17;;;;;;;7.05;4.30;;;;;;;;;;5102606;28;20521;-74
2023/07/26 13:51:43;;;;;;;7.15;4.47;;;;;;;;;;5101179;28;20054;-75
2023/07/26 13:54:08;;;;;;;6.80;4.28;;;;;;;;;;5099717;28;20015;-74
2023/07/26 13:56:33;;;;;;;6.22;3.63;;;;;;;;;;5098590;28;20024;-75
2023/07/26 13:59:00;;;;;;;5.60;4.20;;;;;;;;;;5102901;28;20105;-73
2023/07/26 14:01:26;;;;;;;8.18;4.60;;;;;;;;;;5101981;28;20111;-75
2023/07/26 14:03:51;;;;;;;9.75;5.00;;;;;;;;;;5101013;27;20442;-75
2023/07/26 14:06:17;;;;;;;9.23;5.28;;;;;;;;;;5102236;28;20043;-76
2023/07/26 14:08:42;;;;;;;7.38;5.47;;;;;;;;;;5101923;28;20103;-74
2023/07/26 14:11:07;;;;;;;6.75;5.05;;;;;;;;;;5099587;28;20470;-73
2023/07/26 14:13:33;;;;;;;6.20;5.05;;;;;;;;;;5098890;28;20446;-73
2023/07/26 14:15:58;;;;;;;8.70;5.88;;;;;;;;;;5099954;28;21359;-76
2023/07/26 14:18:24;;;;;;;6.68;5.80;;;;;;;;;;5102148;28;20206;-74
2023/07/26 14:20:49;;;;;;;10.05;5.78;;;;;;;;;;5099551;28;20107;-76
2023/07/26 14:23:15;;;;;;;6.63;5.20;;;;;;;;;;5101854;28;20101;-74